sensor_id;sensor_type;location;lat;lon;timestamp;temperature;humidity
20066;DHT22;10193;48.884;9.182;2022-12-29T00:01:33;11.20;85.10
20066;DHT22;10193;48.884;9.182;2022-12-29T00:04:00;11.20;84.80
20066;DHT22;10193;48.884;9.182;2022-12-29T00:06:28;11.20;85.00
20066;DHT22;10193;48.884;9.182;2022-12-29T00:08:55;11.30;85.10
20066;DHT22;10193;48.884;9.182;2022-12-29T00:11:24;11.30;85.00
20066;DHT22;10193;48.884;9.182;2022-12-29T00:13:52;11.30;85.10
20066;DHT22;10193;48.884;9.182;2022-12-29T00:16:37;11.40;85.30
20066;DHT22;10193;48.884;9.182;2022-12-29T00:19:04;11.40;85.10
20066;DHT22;10193;48.884;9.182;2022-12-29T00:21:32;11.40;85.00
20066;DHT22;10193;48.884;9.182;2022-12-29T00:24:18;11.40;84.90
20066;DHT22;10193;48.884;9.182;2022-12-29T00:27:11;11.40;84.90
20066;DHT22;10193;48.884;9.182;2022-12-29T00:29:56;11.40;84.10
20066;DHT22;10193;48.884;9.182;2022-12-29T00:32:46;11.50;85.20
20066;DHT22;10193;48.884;9.182;2022-12-29T00:35:33;11.50;85.00
20066;DHT22;10193;48.884;9.182;2022-12-29T00:38:05;11.50;84.80
20066;DHT22;10193;48.884;9.182;2022-12-29T00:40:51;11.60;85.10
20066;DHT22;10193;48.884;9.182;2022-12-29T00:43:35;11.60;85.00
20066;DHT22;10193;48.884;9.182;2022-12-29T00:46:19;11.60;84.80
20066;DHT22;10193;48.884;9.182;2022-12-29T00:48:46;11.60;84.80
20066;DHT22;10193;48.884;9.182;2022-12-29T00:51:30;11.60;84.80
20066;DHT22;10193;48.884;9.182;2022-12-29T00:53:58;11.70;84.90
20066;DHT22;10193;48.884;9.182;2022-12-29T00:56:25;11.70;84.80
20066;DHT22;10193;48.884;9.182;2022-12-29T00:58:51;11.70;84.70
20066;DHT22;10193;48.884;9.182;2022-12-29T01:01:18;11.70;84.60
20066;DHT22;10193;48.884;9.182;2022-12-29T01:03:45;11.70;84.70
20066;DHT22;10193;48.884;9.182;2022-12-29T01:06:11;11.70;84.50
20066;DHT22;10193;48.884;9.182;2022-12-29T01:08:38;11.80;84.80
20066;DHT22;10193;48.884;9.182;2022-12-29T01:11:08;11.80;85.00
20066;DHT22;10193;48.884;9.182;2022-12-29T01:13:35;11.80;84.60
20066;DHT22;10193;48.884;9.182;2022-12-29T01:16:02;11.80;84.70
20066;DHT22;10193;48.884;9.182;2022-12-29T01:18:30;11.90;84.80
20066;DHT22;10193;48.884;9.182;2022-12-29T01:21:01;11.90;85.00
20066;DHT22;10193;48.884;9.182;2022-12-29T01:23:28;11.90;84.30
20066;DHT22;10193;48.884;9.182;2022-12-29T01:25:55;11.90;84.80
20066;DHT22;10193;48.884;9.182;2022-12-29T01:28:23;11.90;84.60
20066;DHT22;10193;48.884;9.182;2022-12-29T01:30:50;12.00;84.30
20066;DHT22;10193;48.884;9.182;2022-12-29T01:33:16;12.00;84.60
20066;DHT22;10193;48.884;9.182;2022-12-29T01:35:43;12.00;84.40
20066;DHT22;10193;48.884;9.182;2022-12-29T01:38:10;12.00;84.50
20066;DHT22;10193;48.884;9.182;2022-12-29T01:40:43;12.00;84.20
20066;DHT22;10193;48.884;9.182;2022-12-29T01:43:12;12.00;83.40
20066;DHT22;10193;48.884;9.182;2022-12-29T01:45:45;12.00;84.20
20066;DHT22;10193;48.884;9.182;2022-12-29T01:48:15;12.10;83.50
20066;DHT22;10193;48.884;9.182;2022-12-29T01:50:45;12.10;84.20
20066;DHT22;10193;48.884;9.182;2022-12-29T01:53:16;12.10;83.90
20066;DHT22;10193;48.884;9.182;2022-12-29T01:55:46;12.10;83.70
20066;DHT22;10193;48.884;9.182;2022-12-29T01:58:15;12.10;83.70
20066;DHT22;10193;48.884;9.182;2022-12-29T02:00:45;12.10;83.90
20066;DHT22;10193;48.884;9.182;2022-12-29T02:03:13;12.10;83.70
20066;DHT22;10193;48.884;9.182;2022-12-29T02:05:43;12.10;83.70
20066;DHT22;10193;48.884;9.182;2022-12-29T02:08:13;12.10;83.40
20066;DHT22;10193;48.884;9.182;2022-12-29T02:10:40;12.10;83.60
20066;DHT22;10193;48.884;9.182;2022-12-29T02:13:08;12.10;83.50
20066;DHT22;10193;48.884;9.182;2022-12-29T02:15:41;12.10;83.50
20066;DHT22;10193;48.884;9.182;2022-12-29T02:18:22;12.10;83.40
20066;DHT22;10193;48.884;9.182;2022-12-29T02:24:27;12.10;82.00
20066;DHT22;10193;48.884;9.182;2022-12-29T02:27:24;12.10;81.40
20066;DHT22;10193;48.884;9.182;2022-12-29T02:30:06;12.10;81.50
20066;DHT22;10193;48.884;9.182;2022-12-29T02:32:39;12.10;82.10
20066;DHT22;10193;48.884;9.182;2022-12-29T02:35:14;12.10;82.80
20066;DHT22;10193;48.884;9.182;2022-12-29T02:37:50;12.10;82.80
20066;DHT22;10193;48.884;9.182;2022-12-29T02:40:25;12.10;82.80
20066;DHT22;10193;48.884;9.182;2022-12-29T02:42:59;12.10;83.20
20066;DHT22;10193;48.884;9.182;2022-12-29T02:45:35;12.10;82.80
20066;DHT22;10193;48.884;9.182;2022-12-29T02:48:10;12.10;83.00
20066;DHT22;10193;48.884;9.182;2022-12-29T02:50:45;12.10;82.80
20066;DHT22;10193;48.884;9.182;2022-12-29T02:53:17;12.10;83.10
20066;DHT22;10193;48.884;9.182;2022-12-29T02:56:05;12.10;83.60
20066;DHT22;10193;48.884;9.182;2022-12-29T02:58:31;12.10;83.70
20066;DHT22;10193;48.884;9.182;2022-12-29T03:01:09;12.10;83.90
20066;DHT22;10193;48.884;9.182;2022-12-29T03:03:57;12.10;82.90
20066;DHT22;10193;48.884;9.182;2022-12-29T03:06:35;12.10;82.70
20066;DHT22;10193;48.884;9.182;2022-12-29T03:09:11;12.10;83.40
20066;DHT22;10193;48.884;9.182;2022-12-29T03:11:46;12.10;83.00
20066;DHT22;10193;48.884;9.182;2022-12-29T03:14:36;12.10;83.10
20066;DHT22;10193;48.884;9.182;2022-12-29T03:17:25;12.10;83.50
20066;DHT22;10193;48.884;9.182;2022-12-29T03:20:01;12.10;83.00
20066;DHT22;10193;48.884;9.182;2022-12-29T03:22:32;12.10;82.90
20066;DHT22;10193;48.884;9.182;2022-12-29T03:25:05;12.10;83.50
20066;DHT22;10193;48.884;9.182;2022-12-29T03:27:36;12.10;83.40
20066;DHT22;10193;48.884;9.182;2022-12-29T03:30:07;12.10;83.20
20066;DHT22;10193;48.884;9.182;2022-12-29T03:32:37;12.20;83.60
20066;DHT22;10193;48.884;9.182;2022-12-29T03:35:11;12.10;83.10
20066;DHT22;10193;48.884;9.182;2022-12-29T03:37:42;12.10;82.70
20066;DHT22;10193;48.884;9.182;2022-12-29T03:40:11;12.20;83.30
20066;DHT22;10193;48.884;9.182;2022-12-29T03:42:38;12.20;84.10
20066;DHT22;10193;48.884;9.182;2022-12-29T03:45:07;12.20;83.40
20066;DHT22;10193;48.884;9.182;2022-12-29T03:47:34;12.20;83.20
20066;DHT22;10193;48.884;9.182;2022-12-29T03:50:01;12.20;83.10
20066;DHT22;10193;48.884;9.182;2022-12-29T03:52:29;12.20;83.00
20066;DHT22;10193;48.884;9.182;2022-12-29T03:54:55;12.20;82.90
20066;DHT22;10193;48.884;9.182;2022-12-29T03:57:22;12.10;82.70
20066;DHT22;10193;48.884;9.182;2022-12-29T03:59:48;12.20;82.70
20066;DHT22;10193;48.884;9.182;2022-12-29T04:02:15;12.10;82.70
20066;DHT22;10193;48.884;9.182;2022-12-29T04:04:42;12.10;82.90
20066;DHT22;10193;48.884;9.182;2022-12-29T04:07:08;12.10;83.50
20066;DHT22;10193;48.884;9.182;2022-12-29T04:09:36;12.20;83.80
20066;DHT22;10193;48.884;9.182;2022-12-29T04:12:03;12.20;83.70
20066;DHT22;10193;48.884;9.182;2022-12-29T04:14:30;12.20;83.90
20066;DHT22;10193;48.884;9.182;2022-12-29T04:16:57;12.30;83.90
20066;DHT22;10193;48.884;9.182;2022-12-29T04:19:23;12.30;84.00
20066;DHT22;10193;48.884;9.182;2022-12-29T04:21:50;12.30;84.20
20066;DHT22;10193;48.884;9.182;2022-12-29T04:24:17;12.40;84.50
20066;DHT22;10193;48.884;9.182;2022-12-29T04:26:45;12.40;84.50
20066;DHT22;10193;48.884;9.182;2022-12-29T04:29:11;12.50;84.30
20066;DHT22;10193;48.884;9.182;2022-12-29T04:31:38;12.50;84.30
20066;DHT22;10193;48.884;9.182;2022-12-29T04:34:05;12.60;84.10
20066;DHT22;10193;48.884;9.182;2022-12-29T04:36:31;12.60;84.00
20066;DHT22;10193;48.884;9.182;2022-12-29T04:38:58;12.60;83.50
20066;DHT22;10193;48.884;9.182;2022-12-29T04:41:25;12.70;83.40
20066;DHT22;10193;48.884;9.182;2022-12-29T04:43:53;12.70;82.80
20066;DHT22;10193;48.884;9.182;2022-12-29T04:46:19;12.70;82.20
20066;DHT22;10193;48.884;9.182;2022-12-29T04:48:46;12.70;82.00
20066;DHT22;10193;48.884;9.182;2022-12-29T04:51:13;12.70;81.60
20066;DHT22;10193;48.884;9.182;2022-12-29T04:53:40;12.70;81.70
20066;DHT22;10193;48.884;9.182;2022-12-29T04:56:07;12.60;81.60
20066;DHT22;10193;48.884;9.182;2022-12-29T04:58:34;12.60;81.60
20066;DHT22;10193;48.884;9.182;2022-12-29T05:01:02;12.60;81.70
20066;DHT22;10193;48.884;9.182;2022-12-29T05:03:29;12.50;81.70
20066;DHT22;10193;48.884;9.182;2022-12-29T05:05:56;12.50;81.90
20066;DHT22;10193;48.884;9.182;2022-12-29T05:08:23;12.50;83.00
20066;DHT22;10193;48.884;9.182;2022-12-29T05:10:51;12.50;82.30
20066;DHT22;10193;48.884;9.182;2022-12-29T05:13:18;12.50;82.20
20066;DHT22;10193;48.884;9.182;2022-12-29T05:15:47;12.50;82.40
20066;DHT22;10193;48.884;9.182;2022-12-29T05:18:17;12.50;82.30
20066;DHT22;10193;48.884;9.182;2022-12-29T05:20:44;12.50;82.40
20066;DHT22;10193;48.884;9.182;2022-12-29T05:23:11;12.50;82.70
20066;DHT22;10193;48.884;9.182;2022-12-29T05:25:38;12.60;83.00
20066;DHT22;10193;48.884;9.182;2022-12-29T05:28:04;12.60;82.90
20066;DHT22;10193;48.884;9.182;2022-12-29T05:30:31;12.60;82.60
20066;DHT22;10193;48.884;9.182;2022-12-29T05:32:58;12.60;83.20
20066;DHT22;10193;48.884;9.182;2022-12-29T05:35:26;12.70;83.10
20066;DHT22;10193;48.884;9.182;2022-12-29T05:37:52;12.70;83.40
20066;DHT22;10193;48.884;9.182;2022-12-29T05:40:19;12.70;83.60
20066;DHT22;10193;48.884;9.182;2022-12-29T05:42:46;12.80;83.60
20066;DHT22;10193;48.884;9.182;2022-12-29T05:45:12;12.80;84.00
20066;DHT22;10193;48.884;9.182;2022-12-29T05:47:39;12.90;84.20
20066;DHT22;10193;48.884;9.182;2022-12-29T05:50:06;12.90;84.40
20066;DHT22;10193;48.884;9.182;2022-12-29T05:52:34;13.00;84.40
20066;DHT22;10193;48.884;9.182;2022-12-29T05:55:01;13.00;84.30
20066;DHT22;10193;48.884;9.182;2022-12-29T05:57:27;13.10;84.60
20066;DHT22;10193;48.884;9.182;2022-12-29T05:59:54;13.20;84.60
20066;DHT22;10193;48.884;9.182;2022-12-29T06:02:21;13.20;84.30
20066;DHT22;10193;48.884;9.182;2022-12-29T06:04:47;13.30;84.10
20066;DHT22;10193;48.884;9.182;2022-12-29T06:07:14;13.40;83.90
20066;DHT22;10193;48.884;9.182;2022-12-29T06:09:42;13.40;83.60
20066;DHT22;10193;48.884;9.182;2022-12-29T06:12:09;13.40;82.90
20066;DHT22;10193;48.884;9.182;2022-12-29T06:14:35;13.40;82.80
20066;DHT22;10193;48.884;9.182;2022-12-29T06:17:02;13.50;82.50
20066;DHT22;10193;48.884;9.182;2022-12-29T06:19:29;13.50;82.30
20066;DHT22;10193;48.884;9.182;2022-12-29T06:21:56;13.50;82.20
20066;DHT22;10193;48.884;9.182;2022-12-29T06:24:22;13.50;82.50
20066;DHT22;10193;48.884;9.182;2022-12-29T06:26:50;13.50;82.30
20066;DHT22;10193;48.884;9.182;2022-12-29T06:29:17;13.50;82.40
20066;DHT22;10193;48.884;9.182;2022-12-29T06:31:46;13.50;82.60
20066;DHT22;10193;48.884;9.182;2022-12-29T06:34:14;13.40;81.80
20066;DHT22;10193;48.884;9.182;2022-12-29T06:36:40;13.40;82.20
20066;DHT22;10193;48.884;9.182;2022-12-29T06:39:07;13.40;82.20
20066;DHT22;10193;48.884;9.182;2022-12-29T06:41:34;13.40;82.10
20066;DHT22;10193;48.884;9.182;2022-12-29T06:44:02;13.40;81.70
20066;DHT22;10193;48.884;9.182;2022-12-29T06:46:28;13.40;81.50
20066;DHT22;10193;48.884;9.182;2022-12-29T06:48:55;13.40;81.50
20066;DHT22;10193;48.884;9.182;2022-12-29T06:51:21;13.40;81.80
20066;DHT22;10193;48.884;9.182;2022-12-29T06:53:48;13.40;81.90
20066;DHT22;10193;48.884;9.182;2022-12-29T06:56:15;13.40;82.20
20066;DHT22;10193;48.884;9.182;2022-12-29T06:58:41;13.40;81.90
20066;DHT22;10193;48.884;9.182;2022-12-29T07:01:09;13.40;81.70
20066;DHT22;10193;48.884;9.182;2022-12-29T07:03:36;13.40;81.50
20066;DHT22;10193;48.884;9.182;2022-12-29T07:06:03;13.40;81.60
20066;DHT22;10193;48.884;9.182;2022-12-29T07:08:30;13.40;81.60
20066;DHT22;10193;48.884;9.182;2022-12-29T07:10:56;13.40;81.60
20066;DHT22;10193;48.884;9.182;2022-12-29T07:13:23;13.40;81.80
20066;DHT22;10193;48.884;9.182;2022-12-29T07:15:50;13.40;81.60
20066;DHT22;10193;48.884;9.182;2022-12-29T07:18:18;13.40;81.80
20066;DHT22;10193;48.884;9.182;2022-12-29T07:20:44;13.40;81.60
20066;DHT22;10193;48.884;9.182;2022-12-29T07:23:11;13.40;81.70
20066;DHT22;10193;48.884;9.182;2022-12-29T07:25:37;13.40;81.60
20066;DHT22;10193;48.884;9.182;2022-12-29T07:28:06;13.40;81.70
20066;DHT22;10193;48.884;9.182;2022-12-29T07:30:33;13.40;82.10
20066;DHT22;10193;48.884;9.182;2022-12-29T07:33:00;13.40;82.20
20066;DHT22;10193;48.884;9.182;2022-12-29T07:35:28;13.40;82.00
20066;DHT22;10193;48.884;9.182;2022-12-29T07:37:54;13.40;81.70
20066;DHT22;10193;48.884;9.182;2022-12-29T07:40:21;13.40;81.90
20066;DHT22;10193;48.884;9.182;2022-12-29T07:42:48;13.50;82.10
20066;DHT22;10193;48.884;9.182;2022-12-29T07:45:15;13.50;81.70
20066;DHT22;10193;48.884;9.182;2022-12-29T07:47:41;13.50;81.50
20066;DHT22;10193;48.884;9.182;2022-12-29T07:50:08;13.50;81.80
20066;DHT22;10193;48.884;9.182;2022-12-29T07:52:36;13.60;82.50
20066;DHT22;10193;48.884;9.182;2022-12-29T07:55:03;13.50;81.30
20066;DHT22;10193;48.884;9.182;2022-12-29T07:57:30;13.50;81.10
20066;DHT22;10193;48.884;9.182;2022-12-29T07:59:56;13.50;81.10
20066;DHT22;10193;48.884;9.182;2022-12-29T08:02:23;13.50;80.70
20066;DHT22;10193;48.884;9.182;2022-12-29T08:04:51;13.50;80.70
20066;DHT22;10193;48.884;9.182;2022-12-29T08:07:18;13.50;80.70
20066;DHT22;10193;48.884;9.182;2022-12-29T08:09:46;13.50;80.70
20066;DHT22;10193;48.884;9.182;2022-12-29T08:12:12;13.50;80.60
20066;DHT22;10193;48.884;9.182;2022-12-29T08:14:39;13.40;80.90
20066;DHT22;10193;48.884;9.182;2022-12-29T08:17:06;13.50;81.10
20066;DHT22;10193;48.884;9.182;2022-12-29T08:19:32;13.40;81.00
20066;DHT22;10193;48.884;9.182;2022-12-29T08:21:59;13.40;81.40
20066;DHT22;10193;48.884;9.182;2022-12-29T08:24:25;13.40;81.10
20066;DHT22;10193;48.884;9.182;2022-12-29T08:26:54;13.40;81.10
20066;DHT22;10193;48.884;9.182;2022-12-29T08:29:20;13.40;81.00
20066;DHT22;10193;48.884;9.182;2022-12-29T08:31:47;13.50;81.30
20066;DHT22;10193;48.884;9.182;2022-12-29T08:34:14;13.50;81.20
20066;DHT22;10193;48.884;9.182;2022-12-29T08:36:41;13.40;81.10
20066;DHT22;10193;48.884;9.182;2022-12-29T08:39:07;13.50;81.20
20066;DHT22;10193;48.884;9.182;2022-12-29T08:41:34;13.50;81.30
20066;DHT22;10193;48.884;9.182;2022-12-29T08:44:02;13.50;81.20
20066;DHT22;10193;48.884;9.182;2022-12-29T08:46:29;13.50;81.30
20066;DHT22;10193;48.884;9.182;2022-12-29T08:48:55;13.50;81.50
20066;DHT22;10193;48.884;9.182;2022-12-29T08:51:22;13.50;81.50
20066;DHT22;10193;48.884;9.182;2022-12-29T08:53:49;13.50;81.50
20066;DHT22;10193;48.884;9.182;2022-12-29T08:56:16;13.50;81.60
20066;DHT22;10193;48.884;9.182;2022-12-29T08:58:42;13.50;81.50
20066;DHT22;10193;48.884;9.182;2022-12-29T09:01:10;13.60;81.40
20066;DHT22;10193;48.884;9.182;2022-12-29T09:03:37;13.60;81.50
20066;DHT22;10193;48.884;9.182;2022-12-29T09:06:04;13.60;81.60
20066;DHT22;10193;48.884;9.182;2022-12-29T09:08:31;13.60;81.70
20066;DHT22;10193;48.884;9.182;2022-12-29T09:11:06;13.60;81.80
20066;DHT22;10193;48.884;9.182;2022-12-29T09:13:32;13.60;81.10
20066;DHT22;10193;48.884;9.182;2022-12-29T09:15:59;13.70;82.40
20066;DHT22;10193;48.884;9.182;2022-12-29T09:18:28;13.70;82.40
20066;DHT22;10193;48.884;9.182;2022-12-29T09:20:56;13.70;82.30
20066;DHT22;10193;48.884;9.182;2022-12-29T09:23:24;13.80;82.40
20066;DHT22;10193;48.884;9.182;2022-12-29T09:25:50;13.80;82.50
20066;DHT22;10193;48.884;9.182;2022-12-29T09:28:17;13.80;82.50
20066;DHT22;10193;48.884;9.182;2022-12-29T09:30:44;13.90;82.80
20066;DHT22;10193;48.884;9.182;2022-12-29T09:33:11;14.00;82.90
20066;DHT22;10193;48.884;9.182;2022-12-29T09:35:42;14.00;82.80
20066;DHT22;10193;48.884;9.182;2022-12-29T09:38:10;14.00;82.10
20066;DHT22;10193;48.884;9.182;2022-12-29T09:40:37;14.10;82.80
20066;DHT22;10193;48.884;9.182;2022-12-29T09:43:18;14.10;82.70
20066;DHT22;10193;48.884;9.182;2022-12-29T09:45:52;14.20;82.10
20066;DHT22;10193;48.884;9.182;2022-12-29T09:48:25;14.20;82.40
20066;DHT22;10193;48.884;9.182;2022-12-29T09:50:56;14.20;82.20
20066;DHT22;10193;48.884;9.182;2022-12-29T09:53:27;14.30;82.30
20066;DHT22;10193;48.884;9.182;2022-12-29T09:55:57;14.30;82.60
20066;DHT22;10193;48.884;9.182;2022-12-29T09:58:28;14.40;82.80
20066;DHT22;10193;48.884;9.182;2022-12-29T10:01:00;14.40;82.40
20066;DHT22;10193;48.884;9.182;2022-12-29T10:03:40;14.40;82.20
20066;DHT22;10193;48.884;9.182;2022-12-29T10:06:13;14.50;81.20
20066;DHT22;10193;48.884;9.182;2022-12-29T10:08:46;14.60;82.20
20066;DHT22;10193;48.884;9.182;2022-12-29T10:11:26;14.50;81.50
20066;DHT22;10193;48.884;9.182;2022-12-29T10:14:10;14.60;81.20
20066;DHT22;10193;48.884;9.182;2022-12-29T10:16:43;14.60;81.00
20066;DHT22;10193;48.884;9.182;2022-12-29T10:19:26;14.70;82.20
20066;DHT22;10193;48.884;9.182;2022-12-29T10:22:07;14.60;81.50
20066;DHT22;10193;48.884;9.182;2022-12-29T10:24:38;14.70;82.20
20066;DHT22;10193;48.884;9.182;2022-12-29T10:27:09;14.80;83.00
20066;DHT22;10193;48.884;9.182;2022-12-29T10:29:40;14.80;82.80
20066;DHT22;10193;48.884;9.182;2022-12-29T10:32:16;14.80;83.10
20066;DHT22;10193;48.884;9.182;2022-12-29T10:34:48;14.90;83.20
20066;DHT22;10193;48.884;9.182;2022-12-29T10:37:30;15.00;83.00
20066;DHT22;10193;48.884;9.182;2022-12-29T10:39:59;15.00;81.40
20066;DHT22;10193;48.884;9.182;2022-12-29T10:42:36;15.10;83.30
20066;DHT22;10193;48.884;9.182;2022-12-29T10:45:06;15.10;82.50
20066;DHT22;10193;48.884;9.182;2022-12-29T10:47:37;15.10;82.80
20066;DHT22;10193;48.884;9.182;2022-12-29T10:50:05;15.10;82.40
20066;DHT22;10193;48.884;9.182;2022-12-29T10:52:35;15.10;82.40
20066;DHT22;10193;48.884;9.182;2022-12-29T10:55:08;15.10;82.10
20066;DHT22;10193;48.884;9.182;2022-12-29T10:57:39;15.10;82.00
20066;DHT22;10193;48.884;9.182;2022-12-29T11:00:11;15.10;82.60
20066;DHT22;10193;48.884;9.182;2022-12-29T11:02:51;15.10;82.40
20066;DHT22;10193;48.884;9.182;2022-12-29T11:05:23;15.10;81.50
20066;DHT22;10193;48.884;9.182;2022-12-29T11:07:59;15.10;81.40
20066;DHT22;10193;48.884;9.182;2022-12-29T11:10:34;15.10;81.40
20066;DHT22;10193;48.884;9.182;2022-12-29T11:13:02;15.10;81.40
20066;DHT22;10193;48.884;9.182;2022-12-29T11:15:38;15.20;82.20
20066;DHT22;10193;48.884;9.182;2022-12-29T11:18:18;15.10;81.40
20066;DHT22;10193;48.884;9.182;2022-12-29T11:20:44;15.20;81.50
20066;DHT22;10193;48.884;9.182;2022-12-29T11:23:29;15.20;83.30
20066;DHT22;10193;48.884;9.182;2022-12-29T11:26:23;15.10;81.80
20066;DHT22;10193;48.884;9.182;2022-12-29T11:29:16;15.20;80.60
20066;DHT22;10193;48.884;9.182;2022-12-29T11:31:45;15.30;81.30
20066;DHT22;10193;48.884;9.182;2022-12-29T11:34:17;15.30;83.70
20066;DHT22;10193;48.884;9.182;2022-12-29T11:36:44;15.40;82.80
20066;DHT22;10193;48.884;9.182;2022-12-29T11:39:26;15.40;83.30
20066;DHT22;10193;48.884;9.182;2022-12-29T11:41:54;15.40;81.50
20066;DHT22;10193;48.884;9.182;2022-12-29T11:44:21;15.50;82.80
20066;DHT22;10193;48.884;9.182;2022-12-29T11:46:49;15.50;82.50
20066;DHT22;10193;48.884;9.182;2022-12-29T11:49:20;15.50;81.90
20066;DHT22;10193;48.884;9.182;2022-12-29T11:51:48;15.50;82.00
20066;DHT22;10193;48.884;9.182;2022-12-29T11:54:19;15.50;81.60
20066;DHT22;10193;48.884;9.182;2022-12-29T11:56:50;15.50;81.50
20066;DHT22;10193;48.884;9.182;2022-12-29T11:59:37;15.50;81.20
20066;DHT22;10193;48.884;9.182;2022-12-29T12:02:31;15.50;79.30
20066;DHT22;10193;48.884;9.182;2022-12-29T12:05:03;15.40;79.20
20066;DHT22;10193;48.884;9.182;2022-12-29T12:07:38;15.40;80.60
20066;DHT22;10193;48.884;9.182;2022-12-29T12:10:06;15.40;80.60
20066;DHT22;10193;48.884;9.182;2022-12-29T12:12:43;15.40;80.80
20066;DHT22;10193;48.884;9.182;2022-12-29T12:15:17;15.30;80.00
20066;DHT22;10193;48.884;9.182;2022-12-29T12:17:49;15.30;80.20
20066;DHT22;10193;48.884;9.182;2022-12-29T12:20:19;15.20;80.10
20066;DHT22;10193;48.884;9.182;2022-12-29T12:22:54;15.20;80.60
20066;DHT22;10193;48.884;9.182;2022-12-29T12:25:24;15.20;80.20
20066;DHT22;10193;48.884;9.182;2022-12-29T12:27:58;15.20;80.80
20066;DHT22;10193;48.884;9.182;2022-12-29T12:30:30;15.20;80.30
20066;DHT22;10193;48.884;9.182;2022-12-29T12:33:03;15.20;80.70
20066;DHT22;10193;48.884;9.182;2022-12-29T12:35:37;15.20;80.80
20066;DHT22;10193;48.884;9.182;2022-12-29T12:38:17;15.10;81.60
20066;DHT22;10193;48.884;9.182;2022-12-29T12:41:09;15.20;80.70
20066;DHT22;10193;48.884;9.182;2022-12-29T12:43:41;15.20;79.80
20066;DHT22;10193;48.884;9.182;2022-12-29T12:46:26;15.20;82.10
20066;DHT22;10193;48.884;9.182;2022-12-29T12:49:12;15.20;81.50
20066;DHT22;10193;48.884;9.182;2022-12-29T12:51:47;15.20;81.60
20066;DHT22;10193;48.884;9.182;2022-12-29T12:54:35;15.30;82.00
20066;DHT22;10193;48.884;9.182;2022-12-29T12:57:12;15.30;81.20
20066;DHT22;10193;48.884;9.182;2022-12-29T12:59:52;15.40;82.10
20066;DHT22;10193;48.884;9.182;2022-12-29T13:02:34;15.40;81.90
20066;DHT22;10193;48.884;9.182;2022-12-29T13:05:20;15.40;81.90
20066;DHT22;10193;48.884;9.182;2022-12-29T13:07:57;15.40;81.10
20066;DHT22;10193;48.884;9.182;2022-12-29T13:10:41;15.50;82.40
20066;DHT22;10193;48.884;9.182;2022-12-29T13:13:32;15.50;81.90
20066;DHT22;10193;48.884;9.182;2022-12-29T13:16:06;15.50;81.00
20066;DHT22;10193;48.884;9.182;2022-12-29T13:18:44;15.50;81.80
20066;DHT22;10193;48.884;9.182;2022-12-29T13:21:23;15.60;81.60
20066;DHT22;10193;48.884;9.182;2022-12-29T13:23:57;15.50;81.60
20066;DHT22;10193;48.884;9.182;2022-12-29T13:26:32;15.50;81.70
20066;DHT22;10193;48.884;9.182;2022-12-29T13:29:06;15.50;81.60
20066;DHT22;10193;48.884;9.182;2022-12-29T13:31:46;15.60;81.50
20066;DHT22;10193;48.884;9.182;2022-12-29T13:34:24;15.50;81.20
20066;DHT22;10193;48.884;9.182;2022-12-29T13:36:54;15.50;80.80
20066;DHT22;10193;48.884;9.182;2022-12-29T13:39:25;15.50;81.40
20066;DHT22;10193;48.884;9.182;2022-12-29T13:41:55;15.50;81.20
20066;DHT22;10193;48.884;9.182;2022-12-29T13:44:23;15.40;81.20
20066;DHT22;10193;48.884;9.182;2022-12-29T13:46:54;15.40;81.00
20066;DHT22;10193;48.884;9.182;2022-12-29T13:49:22;15.40;80.60
20066;DHT22;10193;48.884;9.182;2022-12-29T13:51:52;15.40;80.80
20066;DHT22;10193;48.884;9.182;2022-12-29T13:54:29;15.30;80.70
20066;DHT22;10193;48.884;9.182;2022-12-29T13:57:03;15.30;80.30
20066;DHT22;10193;48.884;9.182;2022-12-29T13:59:40;15.30;80.80
20066;DHT22;10193;48.884;9.182;2022-12-29T14:02:19;15.20;80.60
20066;DHT22;10193;48.884;9.182;2022-12-29T14:04:59;15.20;80.50
20066;DHT22;10193;48.884;9.182;2022-12-29T14:07:27;15.20;80.30
20066;DHT22;10193;48.884;9.182;2022-12-29T14:09:55;15.20;81.40
20066;DHT22;10193;48.884;9.182;2022-12-29T14:12:29;15.10;81.50
20066;DHT22;10193;48.884;9.182;2022-12-29T14:15:04;15.10;81.70
20066;DHT22;10193;48.884;9.182;2022-12-29T14:17:33;15.10;81.00
20066;DHT22;10193;48.884;9.182;2022-12-29T14:19:59;15.10;81.50
20066;DHT22;10193;48.884;9.182;2022-12-29T14:22:27;15.00;81.30
20066;DHT22;10193;48.884;9.182;2022-12-29T14:24:54;15.10;81.50
20066;DHT22;10193;48.884;9.182;2022-12-29T14:30:57;14.90;79.30
20066;DHT22;10193;48.884;9.182;2022-12-29T14:33:28;15.00;78.90
20066;DHT22;10193;48.884;9.182;2022-12-29T14:35:56;15.00;81.50
20066;DHT22;10193;48.884;9.182;2022-12-29T14:38:28;15.00;81.80
20066;DHT22;10193;48.884;9.182;2022-12-29T14:41:24;14.90;81.00
20066;DHT22;10193;48.884;9.182;2022-12-29T14:43:59;14.90;80.20
20066;DHT22;10193;48.884;9.182;2022-12-29T14:46:44;14.90;81.10
20066;DHT22;10193;48.884;9.182;2022-12-29T14:49:17;14.90;80.70
20066;DHT22;10193;48.884;9.182;2022-12-29T14:51:45;14.90;81.30
20066;DHT22;10193;48.884;9.182;2022-12-29T14:54:34;14.90;81.80
20066;DHT22;10193;48.884;9.182;2022-12-29T14:57:09;14.90;80.40
20066;DHT22;10193;48.884;9.182;2022-12-29T14:59:37;14.90;81.80
20066;DHT22;10193;48.884;9.182;2022-12-29T15:02:13;14.90;81.70
20066;DHT22;10193;48.884;9.182;2022-12-29T15:04:44;14.80;80.80
20066;DHT22;10193;48.884;9.182;2022-12-29T15:07:11;14.80;81.30
20066;DHT22;10193;48.884;9.182;2022-12-29T15:09:41;14.80;81.90
20066;DHT22;10193;48.884;9.182;2022-12-29T15:12:19;14.80;81.90
20066;DHT22;10193;48.884;9.182;2022-12-29T15:14:52;14.80;81.60
20066;DHT22;10193;48.884;9.182;2022-12-29T15:17:25;14.80;81.40
20066;DHT22;10193;48.884;9.182;2022-12-29T15:19:53;14.80;81.40
20066;DHT22;10193;48.884;9.182;2022-12-29T15:22:21;14.80;81.50
20066;DHT22;10193;48.884;9.182;2022-12-29T15:24:50;14.80;81.80
20066;DHT22;10193;48.884;9.182;2022-12-29T15:27:20;14.80;81.40
20066;DHT22;10193;48.884;9.182;2022-12-29T15:29:50;14.80;81.30
20066;DHT22;10193;48.884;9.182;2022-12-29T15:32:23;14.70;81.40
20066;DHT22;10193;48.884;9.182;2022-12-29T15:34:53;14.70;81.30
20066;DHT22;10193;48.884;9.182;2022-12-29T15:37:21;14.70;81.30
20066;DHT22;10193;48.884;9.182;2022-12-29T15:39:49;14.70;81.50
20066;DHT22;10193;48.884;9.182;2022-12-29T15:42:27;14.70;78.10
20066;DHT22;10193;48.884;9.182;2022-12-29T15:44:56;14.40;75.10
20066;DHT22;10193;48.884;9.182;2022-12-29T15:47:24;14.20;74.60
20066;DHT22;10193;48.884;9.182;2022-12-29T15:49:56;13.90;75.30
20066;DHT22;10193;48.884;9.182;2022-12-29T15:52:25;13.60;76.00
20066;DHT22;10193;48.884;9.182;2022-12-29T15:54:52;13.30;76.80
20066;DHT22;10193;48.884;9.182;2022-12-29T15:57:22;13.10;77.40
20066;DHT22;10193;48.884;9.182;2022-12-29T15:59:50;12.90;78.10
20066;DHT22;10193;48.884;9.182;2022-12-29T16:02:17;12.70;78.80